createdAt,value
2019-03-01T00:00:24.582Z,0.00
2019-03-01T00:01:24.555Z,0.00
2019-03-01T00:02:24.544Z,0.00
2019-03-01T00:03:24.534Z,0.00
2019-03-01T00:04:24.525Z,0.00
2019-03-01T00:05:24.523Z,0.00
2019-03-01T00:06:24.502Z,0.00
2019-03-01T00:07:24.493Z,0.00
2019-03-01T00:08:24.477Z,0.00
2019-03-01T00:09:24.466Z,0.00
2019-03-01T00:10:24.487Z,0.00
2019-03-01T00:11:24.445Z,0.00
2019-03-01T00:12:24.433Z,0.00
2019-03-01T00:13:24.426Z,0.00
2019-03-01T00:14:24.411Z,0.00
2019-03-01T00:15:24.411Z,0.00
2019-03-01T00:16:24.390Z,0.00
2019-03-01T00:17:24.380Z,0.00
2019-03-01T00:18:24.366Z,0.00
2019-03-01T00:19:24.354Z,0.00
2019-03-01T00:20:24.356Z,0.00
2019-03-01T00:21:24.337Z,0.00
2019-03-01T00:22:24.372Z,0.00
2019-03-01T00:23:24.343Z,0.00
2019-03-01T00:24:24.299Z,0.00
2019-03-01T00:25:24.345Z,0.00
2019-03-01T00:26:24.278Z,0.00
2019-03-01T00:27:24.280Z,0.00
2019-03-01T00:28:24.257Z,0.00
2019-03-01T00:29:24.245Z,0.00
2019-03-01T00:30:24.244Z,0.00
2019-03-01T00:31:24.230Z,0.00
2019-03-01T00:32:24.217Z,0.00
2019-03-01T00:33:24.224Z,0.00
2019-03-01T00:34:24.197Z,0.00
2019-03-01T00:35:24.226Z,0.00
2019-03-01T00:36:24.165Z,0.00
2019-03-01T00:37:24.156Z,0.00
2019-03-01T00:38:24.143Z,0.00
2019-03-01T00:39:24.134Z,0.00
2019-03-01T00:40:24.123Z,0.00
2019-03-01T00:41:24.120Z,0.00
2019-03-01T00:42:24.098Z,0.00
2019-03-01T00:43:24.087Z,0.00
2019-03-01T00:44:24.087Z,0.00
2019-03-01T00:45:24.067Z,0.00
2019-03-01T00:46:24.120Z,0.00
2019-03-01T00:47:24.044Z,0.00
2019-03-01T00:48:24.031Z,0.00
2019-03-01T00:49:24.023Z,0.00
2019-03-01T00:50:24.010Z,0.00
2019-03-01T00:51:24.009Z,0.00
2019-03-01T00:52:23.989Z,0.00
2019-03-01T00:53:23.975Z,0.00
2019-03-01T00:54:23.964Z,0.00
2019-03-01T00:55:23.955Z,0.00
2019-03-01T00:56:23.976Z,0.00
2019-03-01T00:57:23.980Z,0.00
2019-03-01T00:58:23.930Z,0.00
2019-03-01T00:59:23.910Z,0.00
2019-03-01T01:00:23.902Z,0.00
2019-03-01T01:01:23.911Z,0.00
2019-03-01T01:02:23.876Z,0.00
2019-03-01T01:03:23.878Z,0.00
2019-03-01T01:04:23.853Z,0.00
2019-03-01T01:05:23.844Z,0.00
2019-03-01T01:06:23.844Z,0.00
2019-03-01T01:07:23.821Z,0.00
2019-03-01T01:08:23.812Z,0.00
2019-03-01T01:09:23.828Z,0.00
2019-03-01T01:10:23.787Z,0.00
2019-03-01T01:11:23.789Z,0.00
2019-03-01T01:12:23.764Z,0.00
2019-03-01T01:13:23.755Z,0.00
2019-03-01T01:14:23.742Z,0.00
2019-03-01T01:15:23.737Z,0.00
2019-03-01T01:16:23.737Z,0.00
2019-03-01T01:17:23.710Z,0.00
2019-03-01T01:18:23.702Z,0.00
2019-03-01T01:19:23.696Z,0.00
2019-03-01T01:20:23.675Z,0.00
2019-03-01T01:21:23.679Z,0.00
2019-03-01T01:22:23.654Z,0.00
2019-03-01T01:23:23.641Z,0.00
2019-03-01T01:24:23.630Z,0.00
2019-03-01T01:25:23.624Z,0.00
2019-03-01T01:26:23.624Z,0.00
2019-03-01T01:27:23.596Z,0.00
2019-03-01T01:28:23.587Z,0.00
2019-03-01T01:29:23.605Z,0.00
2019-03-01T01:30:23.569Z,0.00
2019-03-01T01:31:23.568Z,0.00
2019-03-01T01:32:23.554Z,0.00
2019-03-01T01:33:23.530Z,0.00
2019-03-01T01:34:23.520Z,0.00
2019-03-01T01:35:23.510Z,0.00
2019-03-01T01:36:23.509Z,0.00
2019-03-01T01:37:23.486Z,0.00
2019-03-01T01:38:23.476Z,0.00
2019-03-01T01:39:23.467Z,0.00
2019-03-01T01:40:23.451Z,0.00
2019-03-01T01:41:23.463Z,0.00
2019-03-01T01:42:23.434Z,0.00
2019-03-01T01:43:23.418Z,0.00
2019-03-01T01:44:23.407Z,0.00
2019-03-01T01:45:23.398Z,0.00
2019-03-01T01:46:23.384Z,0.00
2019-03-01T01:47:23.390Z,0.00
2019-03-01T01:48:23.367Z,0.00
2019-03-01T01:49:23.355Z,0.00
2019-03-01T01:50:23.343Z,0.00
2019-03-01T01:51:23.330Z,0.00
2019-03-01T01:52:23.330Z,0.00
2019-03-01T01:53:23.307Z,0.00
2019-03-01T01:54:23.315Z,0.00
2019-03-01T01:55:23.300Z,0.00
2019-03-01T01:56:23.274Z,0.00
2019-03-01T01:57:23.277Z,0.00
2019-03-01T01:58:23.269Z,0.00
2019-03-01T01:59:23.241Z,0.00
2019-03-01T02:00:23.230Z,0.00
2019-03-01T02:01:23.218Z,0.00
2019-03-01T02:02:23.221Z,0.00
2019-03-01T02:03:23.195Z,0.00
2019-03-01T02:04:23.187Z,0.00
2019-03-01T02:05:23.176Z,0.00
2019-03-01T02:06:23.169Z,0.00
2019-03-01T02:07:23.163Z,0.00
2019-03-01T02:08:23.143Z,0.00
2019-03-01T02:09:23.128Z,0.00
2019-03-01T02:10:23.120Z,0.00
2019-03-01T02:11:23.124Z,0.00
2019-03-01T02:12:23.107Z,0.00
2019-03-01T02:13:23.085Z,0.00
2019-03-01T02:14:23.074Z,0.00
2019-03-01T02:15:23.069Z,0.00
2019-03-01T02:16:23.052Z,0.00
2019-03-01T02:17:23.054Z,0.00
2019-03-01T02:18:23.042Z,0.00
2019-03-01T02:19:23.020Z,0.00
2019-03-01T02:20:23.007Z,0.00
2019-03-01T02:21:23.000Z,0.00
2019-03-01T02:22:22.995Z,0.00
2019-03-01T02:23:22.980Z,0.00
2019-03-01T02:24:22.961Z,0.00
2019-03-01T02:25:22.951Z,0.00
2019-03-01T02:26:22.939Z,0.00
2019-03-01T02:27:22.947Z,0.00
2019-03-01T02:28:22.923Z,0.00
2019-03-01T02:29:22.907Z,0.00
2019-03-01T02:30:22.895Z,0.00
2019-03-01T02:31:22.888Z,0.00
2019-03-01T02:32:22.902Z,0.00
2019-03-01T02:33:22.870Z,0.00
2019-03-01T02:34:22.861Z,0.00
2019-03-01T02:35:22.850Z,0.00
2019-03-01T02:36:22.829Z,0.00
2019-03-01T02:37:22.847Z,0.00
2019-03-01T02:38:22.823Z,0.00
2019-03-01T02:39:22.806Z,0.00
2019-03-01T02:40:22.786Z,0.00
2019-03-01T02:41:22.790Z,0.00
2019-03-01T02:42:22.762Z,0.00
2019-03-01T02:43:22.763Z,0.00
2019-03-01T02:44:22.739Z,0.00
2019-03-01T02:45:22.729Z,0.00
2019-03-01T02:46:22.717Z,0.00
2019-03-01T02:47:22.705Z,0.00
2019-03-01T02:48:22.708Z,0.00
2019-03-01T02:49:22.684Z,0.00
2019-03-01T02:50:22.676Z,0.00
2019-03-01T02:51:22.663Z,0.00
2019-03-01T02:52:22.653Z,0.00
2019-03-01T02:53:22.650Z,0.00
2019-03-01T02:54:22.632Z,0.00
2019-03-01T02:55:22.623Z,0.00
2019-03-01T02:56:22.609Z,0.00
2019-03-01T02:57:22.599Z,0.00
2019-03-01T02:58:22.597Z,0.00
2019-03-01T02:59:22.571Z,0.00
2019-03-01T03:00:22.562Z,0.00
2019-03-01T03:01:22.549Z,0.00
2019-03-01T03:02:22.542Z,0.00
2019-03-01T03:03:22.538Z,0.00
2019-03-01T03:04:22.534Z,0.00
2019-03-01T03:05:22.523Z,0.00
2019-03-01T03:06:22.495Z,0.00
2019-03-01T03:07:22.488Z,0.00
2019-03-01T03:08:22.483Z,0.00
2019-03-01T03:09:22.460Z,0.00
2019-03-01T03:10:22.497Z,0.00
2019-03-01T03:11:22.453Z,0.00
2019-03-01T03:12:22.427Z,0.00
2019-03-01T03:13:22.426Z,0.00
2019-03-01T03:14:22.405Z,0.00
2019-03-01T03:15:22.394Z,0.00
2019-03-01T03:16:22.383Z,0.00
2019-03-01T03:17:22.377Z,0.00
2019-03-01T03:18:22.376Z,0.00
2019-03-01T03:19:22.366Z,0.00
2019-03-01T03:20:22.336Z,0.00
2019-03-01T03:21:22.334Z,0.00
2019-03-01T03:22:22.317Z,0.00
2019-03-01T03:23:22.318Z,0.00
2019-03-01T03:24:22.299Z,0.00
2019-03-01T03:25:22.285Z,0.00
2019-03-01T03:26:22.273Z,0.00
2019-03-01T03:27:22.281Z,0.00
2019-03-01T03:28:22.259Z,0.00
2019-03-01T03:29:22.238Z,0.00
2019-03-01T03:30:22.233Z,0.00
2019-03-01T03:31:22.241Z,0.00
2019-03-01T03:32:22.214Z,0.00
2019-03-01T03:33:22.238Z,0.00
2019-03-01T03:34:22.186Z,0.00
2019-03-01T03:35:22.192Z,0.00
2019-03-01T03:36:22.165Z,0.00
2019-03-01T03:37:22.149Z,0.00
2019-03-01T03:38:22.137Z,0.00
2019-03-01T03:39:22.140Z,0.00
2019-03-01T03:40:22.132Z,0.00
2019-03-01T03:41:22.114Z,0.00
2019-03-01T03:42:22.095Z,0.00
2019-03-01T03:43:22.940Z,0.00
2019-03-01T03:44:22.081Z,0.00
2019-03-01T03:45:22.065Z,0.00
2019-03-01T03:46:22.084Z,0.00
2019-03-01T03:47:22.038Z,0.00
2019-03-01T03:48:22.025Z,0.00
2019-03-01T03:49:22.027Z,0.00
2019-03-01T03:50:22.025Z,0.00
2019-03-01T03:51:21.999Z,0.00
2019-03-01T03:52:21.991Z,0.00
2019-03-01T03:53:21.971Z,0.00
2019-03-01T03:54:21.978Z,0.00
2019-03-01T03:55:21.946Z,0.00
2019-03-01T03:56:21.938Z,0.00
2019-03-01T03:57:21.925Z,0.00
2019-03-01T03:58:21.914Z,0.00
2019-03-01T03:59:21.918Z,0.00
2019-03-01T04:00:21.895Z,0.00
2019-03-01T04:01:21.883Z,0.00
2019-03-01T04:02:21.871Z,0.00
2019-03-01T04:03:21.866Z,0.00
2019-03-01T04:04:21.858Z,0.00
2019-03-01T04:05:21.843Z,0.00
2019-03-01T04:06:21.825Z,0.00
2019-03-01T04:07:21.813Z,0.00
2019-03-01T04:08:21.810Z,0.00
2019-03-01T04:09:21.804Z,0.00
2019-03-01T04:10:21.781Z,0.00
2019-03-01T04:11:21.768Z,0.00
2019-03-01T04:12:21.758Z,0.00
2019-03-01T04:13:21.773Z,0.00
2019-03-01T04:14:21.746Z,0.00
2019-03-01T04:15:21.732Z,0.00
2019-03-01T04:16:21.747Z,0.00
2019-03-01T04:17:21.702Z,0.00
2019-03-01T04:18:21.691Z,0.00
2019-03-01T04:19:21.691Z,0.00
2019-03-01T04:20:21.667Z,0.00
2019-03-01T04:21:21.662Z,0.00
2019-03-01T04:22:21.647Z,0.00
2019-03-01T04:23:21.678Z,0.00
2019-03-01T04:24:21.637Z,0.00
2019-03-01T04:25:21.614Z,0.00
2019-03-01T04:26:21.615Z,0.00
2019-03-01T04:27:21.610Z,0.00
2019-03-01T04:28:21.581Z,0.00
2019-03-01T04:29:21.580Z,0.00
2019-03-01T04:30:21.558Z,0.00
2019-03-01T04:31:21.545Z,0.00
2019-03-01T04:32:21.534Z,0.00
2019-03-01T04:33:21.530Z,0.00
2019-03-01T04:34:21.544Z,0.00
2019-03-01T04:35:21.503Z,0.00
2019-03-01T04:36:21.508Z,0.00
2019-03-01T04:37:21.478Z,0.00
2019-03-01T04:38:21.470Z,0.00
2019-03-01T04:39:21.456Z,0.00
2019-03-01T04:40:21.459Z,0.00
2019-03-01T04:41:21.434Z,0.00
2019-03-01T04:42:21.421Z,0.00
2019-03-01T04:43:21.412Z,0.00
2019-03-01T04:44:21.404Z,0.00
2019-03-01T04:45:21.417Z,0.00
2019-03-01T04:46:21.411Z,0.00
2019-03-01T04:47:21.366Z,0.00
2019-03-01T04:48:21.355Z,0.00
2019-03-01T04:49:21.360Z,0.00
2019-03-01T04:50:21.351Z,0.00
2019-03-01T04:51:21.321Z,0.00
2019-03-01T04:52:21.310Z,0.00
2019-03-01T04:53:21.308Z,0.00
2019-03-01T04:54:21.307Z,0.00
2019-03-01T04:55:21.315Z,0.00
2019-03-01T04:56:21.906Z,0.00
2019-03-01T04:57:21.255Z,0.00
2019-03-01T04:58:21.248Z,0.00
2019-03-01T04:59:21.253Z,0.00
2019-03-01T05:00:21.255Z,0.00
2019-03-01T05:01:21.210Z,0.00
2019-03-01T05:02:21.207Z,0.00
2019-03-01T05:03:21.188Z,0.00
2019-03-01T05:04:21.178Z,0.00
2019-03-01T05:05:21.183Z,0.00
2019-03-01T05:06:21.156Z,0.00
2019-03-01T05:07:21.146Z,0.00
2019-03-01T05:08:21.135Z,0.00
2019-03-01T05:09:21.123Z,0.00
2019-03-01T05:10:21.132Z,0.00
2019-03-01T05:11:21.101Z,0.00
2019-03-01T05:12:21.113Z,0.00
2019-03-01T05:13:21.077Z,0.00
2019-03-01T05:14:21.065Z,128.00
2019-03-01T05:15:21.072Z,0.00
2019-03-01T05:16:21.043Z,0.00
2019-03-01T05:17:21.032Z,0.00
2019-03-01T05:18:21.055Z,0.00
2019-03-01T05:19:21.010Z,0.00
2019-03-01T05:20:21.012Z,0.00
2019-03-01T05:21:20.989Z,0.00
2019-03-01T05:22:20.991Z,0.00
2019-03-01T05:23:20.965Z,0.00
2019-03-01T05:24:20.956Z,0.00
2019-03-01T05:25:20.953Z,0.00
2019-03-01T05:26:20.930Z,0.00
2019-03-01T05:27:20.923Z,0.00
2019-03-01T05:28:20.914Z,0.00
2019-03-01T05:29:20.899Z,0.00
2019-03-01T05:30:20.899Z,0.00
2019-03-01T05:31:20.876Z,0.00
2019-03-01T05:32:20.865Z,0.00
2019-03-01T05:33:20.855Z,0.00
2019-03-01T05:34:20.848Z,0.00
2019-03-01T05:35:20.865Z,0.00
2019-03-01T05:36:20.819Z,0.00
2019-03-01T05:37:20.808Z,0.00
2019-03-01T05:38:21.958Z,0.00
2019-03-01T05:39:20.789Z,0.00
2019-03-01T05:40:20.805Z,0.00
2019-03-01T05:41:20.768Z,0.00
2019-03-01T05:42:20.754Z,0.00
2019-03-01T05:43:20.745Z,0.00
2019-03-01T05:44:20.735Z,0.00
2019-03-01T05:45:20.742Z,0.00
2019-03-01T05:46:20.725Z,0.00
2019-03-01T05:47:20.707Z,0.00
2019-03-01T05:48:20.685Z,0.00
2019-03-01T05:49:20.674Z,0.00
2019-03-01T05:50:20.664Z,0.00
2019-03-01T05:51:20.665Z,0.00
2019-03-01T05:52:20.645Z,0.00
2019-03-01T05:53:20.629Z,0.00
2019-03-01T05:54:20.617Z,0.00
2019-03-01T05:55:20.609Z,0.00
2019-03-01T05:56:20.611Z,0.00
2019-03-01T05:57:20.590Z,0.00
2019-03-01T05:58:20.595Z,0.00
2019-03-01T05:59:20.563Z,0.00
2019-03-01T06:00:20.553Z,0.00
2019-03-01T06:01:20.552Z,0.00
2019-03-01T06:02:20.529Z,0.00
2019-03-01T06:03:20.519Z,0.00
2019-03-01T06:04:20.514Z,0.00
2019-03-01T06:05:20.509Z,0.00
2019-03-01T06:06:20.499Z,0.00
2019-03-01T06:07:20.478Z,0.00
2019-03-01T06:08:20.484Z,0.00
2019-03-01T06:09:20.452Z,0.00
2019-03-01T06:10:20.440Z,0.00
2019-03-01T06:11:20.445Z,0.00
2019-03-01T06:12:20.418Z,0.00
2019-03-01T06:13:20.407Z,0.00
2019-03-01T06:14:20.398Z,0.00
2019-03-01T06:15:20.387Z,0.00
2019-03-01T06:16:20.391Z,0.00
2019-03-01T06:17:20.363Z,0.00
2019-03-01T06:18:20.351Z,0.00
2019-03-01T06:19:20.345Z,0.00
2019-03-01T06:20:20.330Z,0.00
2019-03-01T06:21:20.348Z,0.00
2019-03-01T06:22:20.310Z,0.00
2019-03-01T06:23:20.294Z,0.00
2019-03-01T06:24:20.287Z,0.00
2019-03-01T06:25:20.274Z,0.00
2019-03-01T06:26:20.264Z,0.00
2019-03-01T06:27:20.266Z,0.00
2019-03-01T06:28:20.240Z,0.00
2019-03-01T06:29:20.227Z,0.00
2019-03-01T06:30:20.217Z,0.00
2019-03-01T06:31:20.227Z,0.00
2019-03-01T06:32:20.206Z,0.00
2019-03-01T06:33:20.190Z,0.00
2019-03-01T06:34:20.172Z,0.00
2019-03-01T06:35:20.162Z,0.00
2019-03-01T06:36:20.151Z,0.00
2019-03-01T06:37:20.150Z,0.00
2019-03-01T06:38:20.132Z,0.00
2019-03-01T06:39:20.117Z,0.00
2019-03-01T06:40:20.105Z,0.00
2019-03-01T06:41:20.095Z,0.00
2019-03-01T06:42:20.098Z,0.00
2019-03-01T06:43:20.104Z,0.00
2019-03-01T06:44:20.079Z,0.00
2019-03-01T06:45:20.054Z,0.00
2019-03-01T06:46:20.040Z,0.00
2019-03-01T06:47:20.040Z,0.00
2019-03-01T06:48:20.017Z,0.00
2019-03-01T06:49:20.004Z,4.00
2019-03-01T06:50:20.001Z,4.00
2019-03-01T06:51:28.551Z,0.00
2019-03-01T06:52:21.006Z,0.00
2019-03-01T06:53:19.960Z,4.00
2019-03-01T06:54:19.973Z,4.00
2019-03-01T06:55:19.942Z,0.00
2019-03-01T06:56:19.927Z,4.00
2019-03-01T06:57:19.929Z,4.00
2019-03-01T06:58:19.909Z,4.00
2019-03-01T06:59:19.897Z,4.00
2019-03-01T07:00:19.887Z,4.00
2019-03-01T07:01:19.875Z,4.00
2019-03-01T07:02:19.871Z,4.00
2019-03-01T07:03:19.852Z,8.00
2019-03-01T07:04:19.852Z,4.00
2019-03-01T07:05:19.831Z,4.00
2019-03-01T07:06:19.819Z,4.00
2019-03-01T07:07:19.830Z,8.00
2019-03-01T07:08:19.795Z,4.00
2019-03-01T07:09:19.796Z,4.00
2019-03-01T07:10:19.776Z,4.00
2019-03-01T07:11:19.763Z,8.00
2019-03-01T07:12:19.762Z,4.00
2019-03-01T07:13:19.773Z,4.00
2019-03-01T07:14:19.727Z,8.00
2019-03-01T07:15:19.715Z,8.00
2019-03-01T07:16:19.704Z,8.00
2019-03-01T07:17:19.718Z,8.00
2019-03-01T07:18:19.686Z,4.00
2019-03-01T07:19:19.670Z,4.00
2019-03-01T07:20:19.661Z,4.00
2019-03-01T07:21:19.649Z,0.00
2019-03-01T07:22:19.674Z,4.00
2019-03-01T07:23:19.629Z,4.00
2019-03-01T07:24:19.655Z,4.00
2019-03-01T07:25:19.603Z,4.00
2019-03-01T07:26:19.592Z,4.00
2019-03-01T07:27:19.581Z,4.00
2019-03-01T07:28:19.586Z,0.00
2019-03-01T07:29:19.560Z,0.00
2019-03-01T07:30:19.578Z,0.00
2019-03-01T07:31:19.536Z,4.00
2019-03-01T07:32:19.526Z,4.00
2019-03-01T07:33:19.526Z,4.00
2019-03-01T07:34:19.537Z,4.00
2019-03-01T07:35:19.498Z,0.00
2019-03-01T07:36:19.480Z,4.00
2019-03-01T07:37:19.471Z,4.00
2019-03-01T07:38:19.469Z,4.00
2019-03-01T07:39:19.454Z,4.00
2019-03-01T07:40:19.460Z,4.00
2019-03-01T07:41:19.426Z,4.00
2019-03-01T07:42:19.417Z,4.00
2019-03-01T07:43:19.416Z,4.00
2019-03-01T07:44:19.391Z,0.00
2019-03-01T07:45:19.380Z,4.00
2019-03-01T07:46:19.374Z,4.00
2019-03-01T07:47:19.358Z,4.00
2019-03-01T07:48:19.360Z,4.00
2019-03-01T07:49:19.337Z,4.00
2019-03-01T07:50:19.324Z,4.00
2019-03-01T07:51:19.362Z,4.00
2019-03-01T07:52:19.309Z,8.00
2019-03-01T07:53:19.325Z,4.00
2019-03-01T07:54:26.300Z,4.00
2019-03-01T07:55:19.293Z,4.00
2019-03-01T07:56:26.273Z,8.00
2019-03-01T07:57:19.248Z,8.00
2019-03-01T07:58:21.679Z,12.00
2019-03-01T07:59:20.227Z,8.00
2019-03-01T08:00:19.221Z,8.00
2019-03-01T08:01:19.201Z,8.00
2019-03-01T08:02:19.191Z,8.00
2019-03-01T08:03:19.206Z,12.00
2019-03-01T08:04:19.170Z,12.00
2019-03-01T08:05:19.159Z,16.00
2019-03-01T08:06:19.147Z,12.00
2019-03-01T08:07:20.431Z,16.00
2019-03-01T08:08:19.137Z,12.00
2019-03-01T08:09:19.115Z,12.00
2019-03-01T08:10:22.113Z,12.00
2019-03-01T08:11:19.091Z,12.00
2019-03-01T08:12:19.089Z,12.00
2019-03-01T08:13:19.082Z,12.00
2019-03-01T08:14:19.059Z,16.00
2019-03-01T08:15:19.048Z,16.00
2019-03-01T08:16:20.193Z,20.00
2019-03-01T08:17:19.035Z,20.00
2019-03-01T08:18:19.029Z,20.00
2019-03-01T08:19:22.296Z,20.00
2019-03-01T08:20:18.992Z,20.00
2019-03-01T08:21:18.989Z,16.00
2019-03-01T08:22:20.889Z,16.00
2019-03-01T08:23:20.002Z,16.00
2019-03-01T08:24:18.946Z,16.00
2019-03-01T08:25:23.350Z,16.00
2019-03-01T08:26:19.924Z,16.00
2019-03-01T08:27:18.912Z,16.00
2019-03-01T08:28:21.961Z,16.00
2019-03-01T08:29:18.911Z,16.00
2019-03-01T08:30:18.898Z,16.00
2019-03-01T08:31:20.974Z,16.00
2019-03-01T08:32:18.859Z,20.00
2019-03-01T08:33:18.855Z,16.00
2019-03-01T08:34:18.845Z,16.00
2019-03-01T08:35:18.823Z,16.00
2019-03-01T08:36:18.866Z,16.00
2019-03-01T08:37:18.802Z,16.00
2019-03-01T08:38:18.790Z,16.00
2019-03-01T08:39:18.802Z,16.00
2019-03-01T08:40:18.766Z,16.00
2019-03-01T08:41:21.611Z,20.00
2019-03-01T08:42:19.744Z,16.00
2019-03-01T08:43:18.738Z,16.00
2019-03-01T08:44:19.331Z,12.00
2019-03-01T08:45:18.714Z,12.00
2019-03-01T08:46:18.702Z,12.00
2019-03-01T08:47:23.465Z,16.00
2019-03-01T08:48:19.677Z,16.00
2019-03-01T08:49:18.705Z,16.00
2019-03-01T08:50:18.657Z,16.00
2019-03-01T08:51:18.647Z,16.00
2019-03-01T08:52:18.633Z,16.00
2019-03-01T08:53:18.622Z,16.00
2019-03-01T08:54:18.623Z,16.00
2019-03-01T08:55:18.601Z,12.00
2019-03-01T08:56:25.858Z,12.00
2019-03-01T08:57:22.655Z,12.00
2019-03-01T08:58:19.567Z,16.00
2019-03-01T08:59:18.754Z,12.00
2019-03-01T09:00:18.553Z,16.00
2019-03-01T09:01:18.533Z,12.00
2019-03-01T09:02:18.534Z,12.00
2019-03-01T09:03:22.382Z,12.00
2019-03-01T09:04:21.417Z,12.00
2019-03-01T09:05:18.490Z,12.00
2019-03-01T09:06:18.491Z,12.00
2019-03-01T09:07:18.470Z,12.00
2019-03-01T09:08:19.422Z,12.00
2019-03-01T09:09:20.949Z,8.00
2019-03-01T09:10:18.513Z,12.00
2019-03-01T09:11:18.424Z,12.00
2019-03-01T09:12:18.410Z,8.00
2019-03-01T09:13:18.947Z,12.00
2019-03-01T09:14:18.407Z,8.00
2019-03-01T09:15:18.377Z,8.00
2019-03-01T09:16:18.366Z,8.00
2019-03-01T09:17:18.360Z,12.00
2019-03-01T09:18:18.343Z,12.00
2019-03-01T09:19:18.361Z,12.00
2019-03-01T09:20:18.334Z,12.00
2019-03-01T09:21:18.309Z,8.00
2019-03-01T09:22:18.299Z,8.00
2019-03-01T09:23:24.307Z,8.00
2019-03-01T09:24:19.582Z,12.00
2019-03-01T09:25:18.276Z,12.00
2019-03-01T09:26:20.041Z,8.00
2019-03-01T09:27:18.256Z,8.00
2019-03-01T09:28:18.234Z,8.00
2019-03-01T09:29:19.315Z,8.00
2019-03-01T09:30:18.220Z,8.00
2019-03-01T09:31:18.199Z,8.00
2019-03-01T09:32:18.193Z,4.00
2019-03-01T09:33:21.268Z,4.00
2019-03-01T09:34:18.166Z,4.00
2019-03-01T09:35:18.186Z,8.00
2019-03-01T09:36:21.310Z,4.00
2019-03-01T09:37:18.133Z,8.00
2019-03-01T09:38:18.131Z,8.00
2019-03-01T09:39:19.236Z,8.00
2019-03-01T09:40:18.114Z,8.00
2019-03-01T09:41:18.095Z,8.00
2019-03-01T09:42:18.092Z,8.00
2019-03-01T09:43:18.064Z,8.00
2019-03-01T09:44:18.054Z,12.00
2019-03-01T09:45:19.356Z,12.00
2019-03-01T09:46:20.868Z,8.00
2019-03-01T09:47:19.020Z,12.00
2019-03-01T09:48:18.021Z,12.00
2019-03-01T09:49:17.996Z,16.00
2019-03-01T09:50:18.002Z,16.00
2019-03-01T09:51:17.994Z,16.00
2019-03-01T09:52:20.437Z,16.00
2019-03-01T09:53:18.954Z,20.00
2019-03-01T09:54:17.942Z,20.00
2019-03-01T09:55:17.942Z,20.00
2019-03-01T09:56:17.921Z,24.00
2019-03-01T09:57:17.914Z,20.00
2019-03-01T09:58:17.897Z,20.00
2019-03-01T09:59:17.921Z,16.00
2019-03-01T10:00:17.889Z,12.00
2019-03-01T10:01:17.869Z,12.00
2019-03-01T10:02:17.853Z,8.00
2019-03-01T10:03:17.867Z,8.00
2019-03-01T10:04:17.833Z,4.00
2019-03-01T10:05:17.852Z,8.00
2019-03-01T10:06:17.810Z,4.00
2019-03-01T10:07:17.797Z,8.00
2019-03-01T10:08:17.787Z,8.00
2019-03-01T10:09:17.776Z,12.00
2019-03-01T10:10:17.764Z,12.00
2019-03-01T10:11:17.774Z,12.00
2019-03-01T10:12:17.744Z,12.00
2019-03-01T10:13:17.731Z,16.00
2019-03-01T10:14:17.756Z,16.00
2019-03-01T10:15:17.710Z,16.00
2019-03-01T10:16:17.711Z,20.00
2019-03-01T10:17:17.685Z,24.00
2019-03-01T10:18:17.678Z,24.00
2019-03-01T10:19:17.666Z,28.00
2019-03-01T10:20:17.662Z,28.00
2019-03-01T10:21:17.677Z,28.00
2019-03-01T10:22:17.633Z,24.00
2019-03-01T10:23:17.624Z,20.00
2019-03-01T10:24:17.612Z,16.00
2019-03-01T10:25:17.618Z,16.00
2019-03-01T10:26:17.628Z,12.00
2019-03-01T10:27:17.574Z,12.00
2019-03-01T10:28:17.564Z,8.00
2019-03-01T10:29:17.553Z,12.00
2019-03-01T10:30:17.543Z,12.00
2019-03-01T10:31:17.601Z,12.00
2019-03-01T10:32:17.597Z,16.00
2019-03-01T10:33:17.508Z,20.00
2019-03-01T10:34:17.510Z,24.00
2019-03-01T10:35:17.486Z,28.00
2019-03-01T10:36:17.503Z,36.00
2019-03-01T10:37:17.464Z,48.00
2019-03-01T10:38:17.453Z,60.00
2019-03-01T10:39:17.441Z,72.00
2019-03-01T10:40:17.430Z,96.00
2019-03-01T10:41:17.470Z,68.00
2019-03-01T10:42:17.410Z,52.00
2019-03-01T10:43:17.395Z,52.00
2019-03-01T10:44:17.384Z,48.00
2019-03-01T10:45:17.461Z,44.00
2019-03-01T10:46:17.413Z,32.00
2019-03-01T10:47:17.371Z,32.00
2019-03-01T10:48:17.347Z,32.00
2019-03-01T10:49:17.331Z,28.00
2019-03-01T10:50:17.319Z,28.00
2019-03-01T10:51:17.320Z,28.00
2019-03-01T10:52:17.298Z,28.00
2019-03-01T10:53:17.284Z,32.00
2019-03-01T10:54:17.277Z,32.00
2019-03-01T10:55:17.264Z,32.00
2019-03-01T10:56:17.308Z,36.00
2019-03-01T10:57:17.253Z,44.00
2019-03-01T10:58:17.240Z,44.00
2019-03-01T10:59:17.224Z,52.00
2019-03-01T11:00:17.206Z,52.00
2019-03-01T11:01:17.209Z,56.00
2019-03-01T11:02:17.184Z,56.00
2019-03-01T11:03:17.173Z,52.00
2019-03-01T11:04:17.163Z,60.00
2019-03-01T11:05:17.157Z,52.00
2019-03-01T11:06:17.169Z,44.00
2019-03-01T11:07:17.128Z,40.00
2019-03-01T11:08:17.118Z,36.00
2019-03-01T11:09:17.107Z,36.00
2019-03-01T11:10:17.098Z,32.00
2019-03-01T11:11:17.097Z,28.00
2019-03-01T11:12:17.085Z,24.00
2019-03-01T11:13:17.089Z,20.00
2019-03-01T11:14:17.050Z,16.00
2019-03-01T11:15:17.975Z,16.00
2019-03-01T11:16:17.035Z,16.00
2019-03-01T11:17:17.045Z,12.00
2019-03-01T11:18:17.007Z,12.00
2019-03-01T11:19:16.997Z,12.00
2019-03-01T11:20:17.040Z,12.00
2019-03-01T11:21:16.972Z,16.00
2019-03-01T11:22:16.973Z,20.00
2019-03-01T11:23:16.979Z,24.00
2019-03-01T11:24:16.951Z,24.00
2019-03-01T11:25:16.964Z,24.00
2019-03-01T11:26:16.917Z,24.00
2019-03-01T11:27:17.022Z,28.00
2019-03-01T11:28:16.896Z,36.00
2019-03-01T11:29:16.885Z,40.00
2019-03-01T11:30:16.880Z,28.00
2019-03-01T11:31:16.861Z,24.00
2019-03-01T11:32:16.908Z,20.00
2019-03-01T11:33:16.846Z,16.00
2019-03-01T11:34:16.826Z,16.00
2019-03-01T11:35:16.832Z,16.00
2019-03-01T11:36:16.804Z,8.00
2019-03-01T11:37:16.808Z,8.00
2019-03-01T11:38:16.785Z,8.00
2019-03-01T11:39:16.773Z,4.00
2019-03-01T11:40:16.762Z,4.00
2019-03-01T11:41:16.750Z,8.00
2019-03-01T11:42:16.758Z,8.00
2019-03-01T11:43:16.748Z,12.00
2019-03-01T11:44:16.719Z,12.00
2019-03-01T11:45:17.478Z,12.00
2019-03-01T11:46:16.730Z,12.00
2019-03-01T11:47:16.694Z,12.00
2019-03-01T11:48:16.673Z,12.00
2019-03-01T11:49:16.673Z,8.00
2019-03-01T11:50:16.649Z,4.00
2019-03-01T11:51:16.641Z,8.00
2019-03-01T11:52:16.662Z,4.00
2019-03-01T11:53:16.615Z,4.00
2019-03-01T11:54:16.608Z,12.00
2019-03-01T11:55:23.606Z,12.00
2019-03-01T11:56:16.597Z,16.00
2019-03-01T11:57:16.587Z,16.00
2019-03-01T11:58:16.561Z,16.00
2019-03-01T11:59:16.556Z,16.00
2019-03-01T12:00:16.538Z,16.00
2019-03-01T12:01:17.468Z,16.00
2019-03-01T12:02:16.529Z,16.00
2019-03-01T12:03:16.509Z,16.00
2019-03-01T12:04:16.496Z,16.00
2019-03-01T12:05:16.484Z,20.00
2019-03-01T12:06:16.503Z,16.00
2019-03-01T12:07:16.464Z,16.00
2019-03-01T12:08:16.462Z,16.00
2019-03-01T12:09:16.437Z,16.00
2019-03-01T12:10:16.426Z,16.00
2019-03-01T12:11:16.415Z,16.00
2019-03-01T12:12:16.407Z,16.00
2019-03-01T12:13:16.405Z,12.00
2019-03-01T12:14:16.384Z,12.00
2019-03-01T12:15:16.371Z,12.00
2019-03-01T12:16:16.365Z,12.00
2019-03-01T12:17:16.349Z,12.00
2019-03-01T12:18:16.351Z,8.00
2019-03-01T12:19:16.339Z,12.00
2019-03-01T12:20:16.314Z,16.00
2019-03-01T12:21:16.304Z,12.00
2019-03-01T12:22:17.347Z,12.00
2019-03-01T12:23:16.294Z,8.00
2019-03-01T12:24:16.271Z,8.00
2019-03-01T12:25:16.276Z,8.00
2019-03-01T12:26:16.248Z,4.00
2019-03-01T12:27:16.236Z,8.00
2019-03-01T12:28:16.237Z,8.00
2019-03-01T12:29:16.239Z,8.00
2019-03-01T12:30:16.206Z,12.00
2019-03-01T12:31:16.193Z,12.00
2019-03-01T12:32:16.186Z,8.00
2019-03-01T12:33:16.182Z,12.00
2019-03-01T12:34:16.160Z,12.00
2019-03-01T12:35:16.147Z,8.00
2019-03-01T12:36:16.137Z,12.00
2019-03-01T12:37:16.130Z,8.00
2019-03-01T12:38:16.127Z,12.00
2019-03-01T12:39:16.101Z,8.00
2019-03-01T12:40:16.092Z,12.00
2019-03-01T12:41:16.124Z,12.00
2019-03-01T12:42:16.084Z,8.00
2019-03-01T12:43:16.069Z,8.00
2019-03-01T12:44:16.047Z,8.00
2019-03-01T12:45:18.536Z,8.00
2019-03-01T12:46:16.030Z,8.00
2019-03-01T12:47:16.016Z,8.00
2019-03-01T12:48:16.017Z,8.00
2019-03-01T12:49:16.012Z,8.00
2019-03-01T12:50:15.981Z,8.00
2019-03-01T12:51:15.969Z,8.00
2019-03-01T12:52:15.974Z,8.00
2019-03-01T12:53:15.959Z,8.00
2019-03-01T12:54:15.941Z,8.00
2019-03-01T12:55:15.931Z,8.00
2019-03-01T12:56:15.936Z,8.00
2019-03-01T12:57:15.905Z,12.00
2019-03-01T12:58:19.497Z,8.00
2019-03-01T12:59:15.887Z,8.00
2019-03-01T13:00:15.877Z,8.00
2019-03-01T13:01:15.858Z,8.00
2019-03-01T13:02:15.861Z,8.00
2019-03-01T13:03:15.855Z,8.00
2019-03-01T13:04:18.665Z,8.00
2019-03-01T13:05:15.812Z,8.00
2019-03-01T13:06:15.802Z,8.00
2019-03-01T13:07:15.791Z,8.00
2019-03-01T13:08:16.665Z,12.00
2019-03-01T13:09:15.767Z,8.00
2019-03-01T13:10:15.758Z,8.00